sensor_id;sensor_type;location;lat;lon;timestamp;P1;durP1;ratioP1;P2;durP2;ratioP2
77598;SDS011;66758;52.078;5.070;2024-02-28T00:01:21;12.80;;;8.37;;
77598;SDS011;66758;52.078;5.070;2024-02-28T00:03:46;12.87;;;8.10;;
77598;SDS011;66758;52.078;5.070;2024-02-28T00:06:15;12.37;;;7.70;;
77598;SDS011;66758;52.078;5.070;2024-02-28T00:08:41;15.93;;;8.02;;
77598;SDS011;66758;52.078;5.070;2024-02-28T00:11:06;12.27;;;8.30;;
77598;SDS011;66758;52.078;5.070;2024-02-28T00:13:31;14.47;;;8.30;;
77598;SDS011;66758;52.078;5.070;2024-02-28T00:15:57;12.37;;;8.37;;
77598;SDS011;66758;52.078;5.070;2024-02-28T00:18:22;14.10;;;8.60;;
77598;SDS011;66758;52.078;5.070;2024-02-28T00:20:48;14.52;;;8.38;;
77598;SDS011;66758;52.078;5.070;2024-02-28T00:23:14;14.67;;;8.83;;
77598;SDS011;66758;52.078;5.070;2024-02-28T00:25:39;15.40;;;8.47;;
77598;SDS011;66758;52.078;5.070;2024-02-28T00:28:04;14.53;;;8.40;;
77598;SDS011;66758;52.078;5.070;2024-02-28T00:30:30;14.60;;;8.18;;
77598;SDS011;66758;52.078;5.070;2024-02-28T00:32:55;16.17;;;9.10;;
77598;SDS011;66758;52.078;5.070;2024-02-28T00:35:20;14.50;;;8.73;;
77598;SDS011;66758;52.078;5.070;2024-02-28T00:37:46;11.27;;;7.57;;
77598;SDS011;66758;52.078;5.070;2024-02-28T00:40:11;12.53;;;8.37;;
77598;SDS011;66758;52.078;5.070;2024-02-28T00:42:36;16.08;;;8.38;;
77598;SDS011;66758;52.078;5.070;2024-02-28T00:45:02;11.80;;;7.73;;
77598;SDS011;66758;52.078;5.070;2024-02-28T00:47:27;14.67;;;7.93;;
77598;SDS011;66758;52.078;5.070;2024-02-28T00:49:53;11.20;;;7.53;;
77598;SDS011;66758;52.078;5.070;2024-02-28T00:52:18;13.33;;;7.57;;
77598;SDS011;66758;52.078;5.070;2024-02-28T00:54:43;15.73;;;8.10;;
77598;SDS011;66758;52.078;5.070;2024-02-28T00:57:10;14.50;;;7.93;;
77598;SDS011;66758;52.078;5.070;2024-02-28T00:59:35;13.00;;;8.10;;
77598;SDS011;66758;52.078;5.070;2024-02-28T01:02:01;11.50;;;7.70;;
77598;SDS011;66758;52.078;5.070;2024-02-28T01:04:26;14.83;;;8.03;;
77598;SDS011;66758;52.078;5.070;2024-02-28T01:06:52;13.57;;;8.40;;
77598;SDS011;66758;52.078;5.070;2024-02-28T01:09:18;15.27;;;8.40;;
77598;SDS011;66758;52.078;5.070;2024-02-28T01:11:44;13.60;;;7.93;;
77598;SDS011;66758;52.078;5.070;2024-02-28T01:14:09;16.93;;;8.90;;
77598;SDS011;66758;52.078;5.070;2024-02-28T01:16:34;14.63;;;8.27;;
77598;SDS011;66758;52.078;5.070;2024-02-28T01:18:59;11.30;;;8.03;;
77598;SDS011;66758;52.078;5.070;2024-02-28T01:21:25;12.73;;;8.23;;
77598;SDS011;66758;52.078;5.070;2024-02-28T01:23:51;12.97;;;7.87;;
77598;SDS011;66758;52.078;5.070;2024-02-28T01:26:16;13.68;;;8.18;;
77598;SDS011;66758;52.078;5.070;2024-02-28T01:28:41;12.47;;;8.27;;
77598;SDS011;66758;52.078;5.070;2024-02-28T01:31:08;12.93;;;7.93;;
77598;SDS011;66758;52.078;5.070;2024-02-28T01:33:33;15.47;;;8.03;;
77598;SDS011;66758;52.078;5.070;2024-02-28T01:35:58;14.53;;;8.20;;
77598;SDS011;66758;52.078;5.070;2024-02-28T01:38:24;13.50;;;7.77;;
77598;SDS011;66758;52.078;5.070;2024-02-28T01:40:49;13.07;;;8.07;;
77598;SDS011;66758;52.078;5.070;2024-02-28T01:43:14;11.30;;;7.93;;
77598;SDS011;66758;52.078;5.070;2024-02-28T01:45:40;13.30;;;7.93;;
77598;SDS011;66758;52.078;5.070;2024-02-28T01:48:06;15.63;;;8.40;;
77598;SDS011;66758;52.078;5.070;2024-02-28T01:50:32;12.98;;;8.50;;
77598;SDS011;66758;52.078;5.070;2024-02-28T01:52:58;15.30;;;8.65;;
77598;SDS011;66758;52.078;5.070;2024-02-28T01:55:23;12.67;;;8.40;;
77598;SDS011;66758;52.078;5.070;2024-02-28T01:57:48;13.85;;;8.45;;
77598;SDS011;66758;52.078;5.070;2024-02-28T02:00:14;13.23;;;8.43;;
77598;SDS011;66758;52.078;5.070;2024-02-28T02:02:40;12.20;;;8.47;;
77598;SDS011;66758;52.078;5.070;2024-02-28T02:05:06;12.93;;;8.43;;
77598;SDS011;66758;52.078;5.070;2024-02-28T02:07:32;13.25;;;8.77;;
77598;SDS011;66758;52.078;5.070;2024-02-28T02:09:58;15.30;;;8.23;;
77598;SDS011;66758;52.078;5.070;2024-02-28T02:12:23;13.27;;;8.10;;
77598;SDS011;66758;52.078;5.070;2024-02-28T02:14:48;14.53;;;8.67;;
77598;SDS011;66758;52.078;5.070;2024-02-28T02:17:14;15.60;;;8.77;;
77598;SDS011;66758;52.078;5.070;2024-02-28T02:19:39;13.93;;;9.53;;
77598;SDS011;66758;52.078;5.070;2024-02-28T02:22:05;13.43;;;7.93;;
77598;SDS011;66758;52.078;5.070;2024-02-28T02:24:30;11.20;;;7.93;;
77598;SDS011;66758;52.078;5.070;2024-02-28T02:26:59;13.20;;;8.03;;
77598;SDS011;66758;52.078;5.070;2024-02-28T02:29:24;12.18;;;7.95;;
77598;SDS011;66758;52.078;5.070;2024-02-28T02:31:50;12.77;;;7.47;;
77598;SDS011;66758;52.078;5.070;2024-02-28T02:34:15;12.57;;;7.50;;
77598;SDS011;66758;52.078;5.070;2024-02-28T02:36:41;13.55;;;8.50;;
77598;SDS011;66758;52.078;5.070;2024-02-28T02:39:06;14.97;;;8.13;;
77598;SDS011;66758;52.078;5.070;2024-02-28T02:41:33;12.60;;;7.85;;
77598;SDS011;66758;52.078;5.070;2024-02-28T02:43:58;12.40;;;7.93;;
77598;SDS011;66758;52.078;5.070;2024-02-28T02:46:24;14.13;;;8.37;;
77598;SDS011;66758;52.078;5.070;2024-02-28T02:48:49;13.77;;;8.03;;
77598;SDS011;66758;52.078;5.070;2024-02-28T02:51:14;11.67;;;8.33;;
77598;SDS011;66758;52.078;5.070;2024-02-28T02:53:40;14.55;;;8.07;;
77598;SDS011;66758;52.078;5.070;2024-02-28T02:56:05;11.83;;;8.33;;
77598;SDS011;66758;52.078;5.070;2024-02-28T02:58:30;16.87;;;8.83;;
77598;SDS011;66758;52.078;5.070;2024-02-28T03:00:56;16.43;;;8.50;;
77598;SDS011;66758;52.078;5.070;2024-02-28T03:03:21;16.47;;;9.47;;
77598;SDS011;66758;52.078;5.070;2024-02-28T03:05:46;16.10;;;9.50;;
77598;SDS011;66758;52.078;5.070;2024-02-28T03:08:12;15.37;;;9.37;;
77598;SDS011;66758;52.078;5.070;2024-02-28T03:10:37;18.37;;;9.17;;
77598;SDS011;66758;52.078;5.070;2024-02-28T03:13:02;19.73;;;9.60;;
77598;SDS011;66758;52.078;5.070;2024-02-28T03:15:28;17.67;;;10.10;;
77598;SDS011;66758;52.078;5.070;2024-02-28T03:17:53;16.47;;;10.03;;
77598;SDS011;66758;52.078;5.070;2024-02-28T03:20:18;18.93;;;10.27;;
77598;SDS011;66758;52.078;5.070;2024-02-28T03:22:46;18.17;;;10.13;;
77598;SDS011;66758;52.078;5.070;2024-02-28T03:25:11;16.90;;;11.20;;
77598;SDS011;66758;52.078;5.070;2024-02-28T03:27:37;17.20;;;10.23;;
77598;SDS011;66758;52.078;5.070;2024-02-28T03:30:02;21.93;;;11.87;;
77598;SDS011;66758;52.078;5.070;2024-02-28T03:32:28;17.17;;;10.43;;
77598;SDS011;66758;52.078;5.070;2024-02-28T03:34:53;17.00;;;10.83;;
77598;SDS011;66758;52.078;5.070;2024-02-28T03:37:18;17.30;;;10.53;;
77598;SDS011;66758;52.078;5.070;2024-02-28T03:39:44;17.70;;;11.30;;
77598;SDS011;66758;52.078;5.070;2024-02-28T03:42:09;16.17;;;10.33;;
77598;SDS011;66758;52.078;5.070;2024-02-28T03:44:34;19.57;;;10.87;;
77598;SDS011;66758;52.078;5.070;2024-02-28T03:47:00;17.43;;;10.83;;
77598;SDS011;66758;52.078;5.070;2024-02-28T03:49:25;17.20;;;11.10;;
77598;SDS011;66758;52.078;5.070;2024-02-28T03:51:50;17.60;;;9.53;;
77598;SDS011;66758;52.078;5.070;2024-02-28T03:54:15;16.83;;;10.53;;
77598;SDS011;66758;52.078;5.070;2024-02-28T03:56:41;15.82;;;10.35;;
77598;SDS011;66758;52.078;5.070;2024-02-28T03:59:06;18.87;;;11.13;;
77598;SDS011;66758;52.078;5.070;2024-02-28T04:01:32;18.40;;;10.57;;
77598;SDS011;66758;52.078;5.070;2024-02-28T04:03:57;17.80;;;11.67;;
77598;SDS011;66758;52.078;5.070;2024-02-28T04:06:23;16.70;;;9.87;;
77598;SDS011;66758;52.078;5.070;2024-02-28T04:08:48;20.90;;;11.75;;
77598;SDS011;66758;52.078;5.070;2024-02-28T04:11:13;19.07;;;11.50;;
77598;SDS011;66758;52.078;5.070;2024-02-28T04:13:39;16.37;;;11.27;;
77598;SDS011;66758;52.078;5.070;2024-02-28T04:16:05;18.00;;;11.13;;
77598;SDS011;66758;52.078;5.070;2024-02-28T04:18:30;17.13;;;11.70;;
77598;SDS011;66758;52.078;5.070;2024-02-28T04:20:55;16.77;;;11.17;;
77598;SDS011;66758;52.078;5.070;2024-02-28T04:23:21;16.57;;;11.63;;
77598;SDS011;66758;52.078;5.070;2024-02-28T04:25:46;18.90;;;11.83;;
77598;SDS011;66758;52.078;5.070;2024-02-28T04:28:11;22.37;;;11.87;;
77598;SDS011;66758;52.078;5.070;2024-02-28T04:30:37;22.67;;;12.77;;
77598;SDS011;66758;52.078;5.070;2024-02-28T04:33:02;18.83;;;11.77;;
77598;SDS011;66758;52.078;5.070;2024-02-28T04:35:27;19.47;;;12.40;;
77598;SDS011;66758;52.078;5.070;2024-02-28T04:37:53;19.00;;;10.87;;
77598;SDS011;66758;52.078;5.070;2024-02-28T04:40:18;19.47;;;11.37;;
77598;SDS011;66758;52.078;5.070;2024-02-28T04:42:43;18.67;;;11.40;;
77598;SDS011;66758;52.078;5.070;2024-02-28T04:45:09;21.02;;;11.50;;
77598;SDS011;66758;52.078;5.070;2024-02-28T04:47:34;19.50;;;11.90;;
77598;SDS011;66758;52.078;5.070;2024-02-28T04:50:01;19.25;;;11.75;;
77598;SDS011;66758;52.078;5.070;2024-02-28T04:52:26;19.67;;;12.00;;
77598;SDS011;66758;52.078;5.070;2024-02-28T04:54:52;18.23;;;10.60;;
77598;SDS011;66758;52.078;5.070;2024-02-28T04:57:18;20.45;;;12.02;;
77598;SDS011;66758;52.078;5.070;2024-02-28T04:59:44;16.33;;;10.93;;
77598;SDS011;66758;52.078;5.070;2024-02-28T05:02:09;18.05;;;11.35;;
77598;SDS011;66758;52.078;5.070;2024-02-28T05:04:35;18.43;;;11.60;;
77598;SDS011;66758;52.078;5.070;2024-02-28T05:07:00;18.07;;;10.83;;
77598;SDS011;66758;52.078;5.070;2024-02-28T05:09:25;20.00;;;11.03;;
77598;SDS011;66758;52.078;5.070;2024-02-28T05:11:51;21.03;;;12.00;;
77598;SDS011;66758;52.078;5.070;2024-02-28T05:14:16;19.70;;;10.77;;
77598;SDS011;66758;52.078;5.070;2024-02-28T05:16:41;19.87;;;11.97;;
77598;SDS011;66758;52.078;5.070;2024-02-28T05:19:07;20.67;;;11.68;;
77598;SDS011;66758;52.078;5.070;2024-02-28T05:21:39;21.37;;;11.60;;
77598;SDS011;66758;52.078;5.070;2024-02-28T05:24:04;20.20;;;12.05;;
77598;SDS011;66758;52.078;5.070;2024-02-28T05:26:30;21.60;;;10.80;;
77598;SDS011;66758;52.078;5.070;2024-02-28T05:28:59;17.42;;;10.98;;
77598;SDS011;66758;52.078;5.070;2024-02-28T05:31:25;21.15;;;11.80;;
77598;SDS011;66758;52.078;5.070;2024-02-28T05:33:54;19.75;;;12.00;;
77598;SDS011;66758;52.078;5.070;2024-02-28T05:36:22;24.77;;;11.67;;
77598;SDS011;66758;52.078;5.070;2024-02-28T05:38:47;21.27;;;11.27;;
77598;SDS011;66758;52.078;5.070;2024-02-28T05:41:13;21.80;;;11.77;;
77598;SDS011;66758;52.078;5.070;2024-02-28T05:43:39;23.42;;;12.05;;
77598;SDS011;66758;52.078;5.070;2024-02-28T05:46:06;22.38;;;12.75;;
77598;SDS011;66758;52.078;5.070;2024-02-28T05:48:37;22.10;;;12.27;;
77598;SDS011;66758;52.078;5.070;2024-02-28T05:51:03;22.02;;;13.32;;
77598;SDS011;66758;52.078;5.070;2024-02-28T05:53:35;24.95;;;13.82;;
77598;SDS011;66758;52.078;5.070;2024-02-28T05:56:03;21.83;;;12.82;;
77598;SDS011;66758;52.078;5.070;2024-02-28T05:58:29;22.87;;;13.30;;
77598;SDS011;66758;52.078;5.070;2024-02-28T06:01:03;23.00;;;13.07;;
77598;SDS011;66758;52.078;5.070;2024-02-28T06:03:28;26.17;;;12.83;;
77598;SDS011;66758;52.078;5.070;2024-02-28T06:05:54;21.77;;;13.63;;
77598;SDS011;66758;52.078;5.070;2024-02-28T06:08:20;23.05;;;13.07;;
77598;SDS011;66758;52.078;5.070;2024-02-28T06:10:45;21.77;;;13.33;;
77598;SDS011;66758;52.078;5.070;2024-02-28T06:13:12;22.58;;;13.38;;
77598;SDS011;66758;52.078;5.070;2024-02-28T06:15:40;22.00;;;13.50;;
77598;SDS011;66758;52.078;5.070;2024-02-28T06:18:24;25.17;;;14.57;;
77598;SDS011;66758;52.078;5.070;2024-02-28T06:21:05;24.40;;;14.52;;
77598;SDS011;66758;52.078;5.070;2024-02-28T06:23:30;22.08;;;14.32;;
77598;SDS011;66758;52.078;5.070;2024-02-28T06:25:56;21.50;;;14.30;;
77598;SDS011;66758;52.078;5.070;2024-02-28T06:28:21;23.73;;;14.65;;
77598;SDS011;66758;52.078;5.070;2024-02-28T06:30:49;25.33;;;14.93;;
77598;SDS011;66758;52.078;5.070;2024-02-28T06:33:15;21.63;;;13.70;;
77598;SDS011;66758;52.078;5.070;2024-02-28T06:35:40;21.67;;;13.70;;
77598;SDS011;66758;52.078;5.070;2024-02-28T06:38:06;24.43;;;14.93;;
77598;SDS011;66758;52.078;5.070;2024-02-28T06:40:32;24.65;;;15.95;;
77598;SDS011;66758;52.078;5.070;2024-02-28T06:42:57;23.97;;;15.17;;
77598;SDS011;66758;52.078;5.070;2024-02-28T06:45:24;27.02;;;15.75;;
77598;SDS011;66758;52.078;5.070;2024-02-28T06:47:50;24.37;;;14.23;;
77598;SDS011;66758;52.078;5.070;2024-02-28T06:50:16;23.38;;;14.98;;
77598;SDS011;66758;52.078;5.070;2024-02-28T06:52:41;21.97;;;15.23;;
77598;SDS011;66758;52.078;5.070;2024-02-28T06:55:07;26.85;;;15.50;;
77598;SDS011;66758;52.078;5.070;2024-02-28T06:57:39;23.80;;;14.67;;
77598;SDS011;66758;52.078;5.070;2024-02-28T07:00:05;23.85;;;14.63;;
77598;SDS011;66758;52.078;5.070;2024-02-28T07:02:33;25.50;;;14.57;;
77598;SDS011;66758;52.078;5.070;2024-02-28T07:04:58;24.60;;;14.57;;
77598;SDS011;66758;52.078;5.070;2024-02-28T07:07:24;23.05;;;14.20;;
77598;SDS011;66758;52.078;5.070;2024-02-28T07:09:50;24.87;;;16.17;;
77598;SDS011;66758;52.078;5.070;2024-02-28T07:12:15;23.80;;;15.87;;
77598;SDS011;66758;52.078;5.070;2024-02-28T07:14:40;24.47;;;16.27;;
77598;SDS011;66758;52.078;5.070;2024-02-28T07:17:05;22.83;;;14.93;;
77598;SDS011;66758;52.078;5.070;2024-02-28T07:19:32;25.70;;;14.80;;
77598;SDS011;66758;52.078;5.070;2024-02-28T07:21:57;23.00;;;14.07;;
77598;SDS011;66758;52.078;5.070;2024-02-28T07:24:22;23.03;;;15.53;;
77598;SDS011;66758;52.078;5.070;2024-02-28T07:26:48;25.03;;;15.43;;
77598;SDS011;66758;52.078;5.070;2024-02-28T07:29:14;25.77;;;16.13;;
77598;SDS011;66758;52.078;5.070;2024-02-28T07:31:39;26.03;;;14.90;;
77598;SDS011;66758;52.078;5.070;2024-02-28T07:34:05;26.67;;;15.48;;
77598;SDS011;66758;52.078;5.070;2024-02-28T07:36:31;27.20;;;16.77;;
77598;SDS011;66758;52.078;5.070;2024-02-28T07:38:56;25.50;;;15.80;;
77598;SDS011;66758;52.078;5.070;2024-02-28T07:41:22;26.63;;;16.90;;
77598;SDS011;66758;52.078;5.070;2024-02-28T07:43:47;32.27;;;17.60;;
77598;SDS011;66758;52.078;5.070;2024-02-28T07:46:12;25.27;;;15.75;;
77598;SDS011;66758;52.078;5.070;2024-02-28T07:48:38;25.57;;;16.13;;
77598;SDS011;66758;52.078;5.070;2024-02-28T07:51:07;29.07;;;17.60;;
77598;SDS011;66758;52.078;5.070;2024-02-28T07:53:32;27.88;;;17.10;;
77598;SDS011;66758;52.078;5.070;2024-02-28T07:55:58;29.27;;;16.43;;
77598;SDS011;66758;52.078;5.070;2024-02-28T07:58:23;25.17;;;16.83;;
77598;SDS011;66758;52.078;5.070;2024-02-28T08:00:49;29.60;;;18.03;;
77598;SDS011;66758;52.078;5.070;2024-02-28T08:03:15;29.52;;;17.45;;
77598;SDS011;66758;52.078;5.070;2024-02-28T08:05:41;24.00;;;16.60;;
77598;SDS011;66758;52.078;5.070;2024-02-28T08:08:08;27.27;;;16.65;;
77598;SDS011;66758;52.078;5.070;2024-02-28T08:10:33;27.20;;;17.67;;
77598;SDS011;66758;52.078;5.070;2024-02-28T08:13:00;28.92;;;17.70;;
77598;SDS011;66758;52.078;5.070;2024-02-28T08:15:25;27.80;;;17.57;;
77598;SDS011;66758;52.078;5.070;2024-02-28T08:17:51;27.60;;;16.40;;
77598;SDS011;66758;52.078;5.070;2024-02-28T08:20:16;27.13;;;16.13;;
77598;SDS011;66758;52.078;5.070;2024-02-28T08:22:41;27.57;;;17.00;;
77598;SDS011;66758;52.078;5.070;2024-02-28T08:25:06;29.03;;;16.33;;
77598;SDS011;66758;52.078;5.070;2024-02-28T08:27:32;24.23;;;15.90;;
77598;SDS011;66758;52.078;5.070;2024-02-28T08:30:00;26.90;;;16.30;;
77598;SDS011;66758;52.078;5.070;2024-02-28T08:32:25;27.90;;;15.73;;
77598;SDS011;66758;52.078;5.070;2024-02-28T08:34:51;26.37;;;16.23;;
77598;SDS011;66758;52.078;5.070;2024-02-28T08:37:18;22.42;;;15.85;;
77598;SDS011;66758;52.078;5.070;2024-02-28T08:39:43;24.10;;;14.70;;
77598;SDS011;66758;52.078;5.070;2024-02-28T08:42:09;22.83;;;15.03;;
77598;SDS011;66758;52.078;5.070;2024-02-28T08:44:34;27.37;;;15.40;;
77598;SDS011;66758;52.078;5.070;2024-02-28T08:46:59;25.73;;;13.93;;
77598;SDS011;66758;52.078;5.070;2024-02-28T08:49:25;25.33;;;16.03;;
77598;SDS011;66758;52.078;5.070;2024-02-28T08:51:51;22.85;;;15.05;;
77598;SDS011;66758;52.078;5.070;2024-02-28T08:54:16;22.07;;;14.93;;
77598;SDS011;66758;52.078;5.070;2024-02-28T08:56:42;22.30;;;14.47;;
77598;SDS011;66758;52.078;5.070;2024-02-28T08:59:07;20.83;;;13.67;;
77598;SDS011;66758;52.078;5.070;2024-02-28T09:01:32;20.87;;;13.60;;
77598;SDS011;66758;52.078;5.070;2024-02-28T09:03:59;23.38;;;14.55;;
77598;SDS011;66758;52.078;5.070;2024-02-28T09:06:25;24.10;;;14.33;;
77598;SDS011;66758;52.078;5.070;2024-02-28T09:08:50;23.23;;;13.33;;
77598;SDS011;66758;52.078;5.070;2024-02-28T09:11:15;22.77;;;14.10;;
77598;SDS011;66758;52.078;5.070;2024-02-28T09:13:41;19.87;;;13.07;;
77598;SDS011;66758;52.078;5.070;2024-02-28T09:16:06;18.52;;;12.90;;
77598;SDS011;66758;52.078;5.070;2024-02-28T09:18:31;19.23;;;13.20;;
77598;SDS011;66758;52.078;5.070;2024-02-28T09:20:56;21.20;;;13.37;;
77598;SDS011;66758;52.078;5.070;2024-02-28T09:23:23;18.67;;;12.03;;
77598;SDS011;66758;52.078;5.070;2024-02-28T09:25:48;18.23;;;12.73;;
77598;SDS011;66758;52.078;5.070;2024-02-28T09:28:14;23.70;;;12.10;;
77598;SDS011;66758;52.078;5.070;2024-02-28T09:30:41;16.92;;;11.80;;
77598;SDS011;66758;52.078;5.070;2024-02-28T09:33:06;18.60;;;12.80;;
77598;SDS011;66758;52.078;5.070;2024-02-28T09:35:31;20.57;;;13.37;;
77598;SDS011;66758;52.078;5.070;2024-02-28T09:37:57;20.27;;;12.80;;
77598;SDS011;66758;52.078;5.070;2024-02-28T09:40:22;18.43;;;13.50;;
77598;SDS011;66758;52.078;5.070;2024-02-28T09:42:50;23.50;;;14.10;;
77598;SDS011;66758;52.078;5.070;2024-02-28T09:45:17;21.30;;;14.17;;
77598;SDS011;66758;52.078;5.070;2024-02-28T09:51:05;19.27;;;13.03;;
77598;SDS011;66758;52.078;5.070;2024-02-28T09:53:30;25.05;;;14.73;;
77598;SDS011;66758;52.078;5.070;2024-02-28T09:55:56;24.30;;;14.90;;
77598;SDS011;66758;52.078;5.070;2024-02-28T09:58:21;24.77;;;15.33;;
77598;SDS011;66758;52.078;5.070;2024-02-28T10:00:47;27.37;;;16.20;;
77598;SDS011;66758;52.078;5.070;2024-02-28T10:03:21;26.95;;;16.73;;
77598;SDS011;66758;52.078;5.070;2024-02-28T10:05:48;26.47;;;17.07;;
77598;SDS011;66758;52.078;5.070;2024-02-28T10:08:14;25.77;;;16.58;;
77598;SDS011;66758;52.078;5.070;2024-02-28T10:10:48;27.43;;;16.80;;
77598;SDS011;66758;52.078;5.070;2024-02-28T10:13:17;30.35;;;16.48;;
77598;SDS011;66758;52.078;5.070;2024-02-28T10:15:42;23.42;;;16.27;;
77598;SDS011;66758;52.078;5.070;2024-02-28T10:18:07;24.80;;;16.93;;
77598;SDS011;66758;52.078;5.070;2024-02-28T10:20:33;22.87;;;15.90;;
77598;SDS011;66758;52.078;5.070;2024-02-28T10:22:59;23.75;;;17.00;;
77598;SDS011;66758;52.078;5.070;2024-02-28T10:25:24;24.70;;;16.13;;
77598;SDS011;66758;52.078;5.070;2024-02-28T10:27:51;25.60;;;16.83;;
77598;SDS011;66758;52.078;5.070;2024-02-28T10:30:16;28.70;;;16.23;;
77598;SDS011;66758;52.078;5.070;2024-02-28T10:32:49;21.23;;;15.00;;
77598;SDS011;66758;52.078;5.070;2024-02-28T10:35:16;24.02;;;15.93;;
77598;SDS011;66758;52.078;5.070;2024-02-28T10:37:43;26.10;;;15.40;;
77598;SDS011;66758;52.078;5.070;2024-02-28T10:40:09;24.17;;;15.55;;
77598;SDS011;66758;52.078;5.070;2024-02-28T10:42:37;22.67;;;14.70;;
77598;SDS011;66758;52.078;5.070;2024-02-28T10:45:02;24.53;;;14.77;;
77598;SDS011;66758;52.078;5.070;2024-02-28T10:47:28;22.70;;;15.17;;
77598;SDS011;66758;52.078;5.070;2024-02-28T10:49:53;20.47;;;13.63;;
77598;SDS011;66758;52.078;5.070;2024-02-28T10:52:18;22.47;;;14.00;;
77598;SDS011;66758;52.078;5.070;2024-02-28T10:54:46;20.83;;;13.47;;
77598;SDS011;66758;52.078;5.070;2024-02-28T10:57:14;22.58;;;14.13;;
77598;SDS011;66758;52.078;5.070;2024-02-28T10:59:40;20.23;;;13.15;;
77598;SDS011;66758;52.078;5.070;2024-02-28T11:02:08;23.13;;;14.40;;
77598;SDS011;66758;52.078;5.070;2024-02-28T11:04:34;22.57;;;14.03;;
77598;SDS011;66758;52.078;5.070;2024-02-28T11:07:01;19.20;;;12.80;;
77598;SDS011;66758;52.078;5.070;2024-02-28T11:09:28;25.50;;;14.13;;
77598;SDS011;66758;52.078;5.070;2024-02-28T11:11:55;22.73;;;12.70;;
77598;SDS011;66758;52.078;5.070;2024-02-28T11:14:21;26.50;;;13.50;;
77598;SDS011;66758;52.078;5.070;2024-02-28T11:17:03;24.27;;;14.67;;
77598;SDS011;66758;52.078;5.070;2024-02-28T11:19:29;20.92;;;14.32;;
77598;SDS011;66758;52.078;5.070;2024-02-28T11:21:58;21.40;;;13.70;;
77598;SDS011;66758;52.078;5.070;2024-02-28T11:24:24;18.83;;;12.68;;
77598;SDS011;66758;52.078;5.070;2024-02-28T11:26:52;21.50;;;13.07;;
77598;SDS011;66758;52.078;5.070;2024-02-28T11:29:21;22.47;;;13.90;;
77598;SDS011;66758;52.078;5.070;2024-02-28T11:31:47;20.10;;;12.40;;
77598;SDS011;66758;52.078;5.070;2024-02-28T11:34:12;22.80;;;15.10;;
77598;SDS011;66758;52.078;5.070;2024-02-28T11:36:37;24.27;;;14.47;;
77598;SDS011;66758;52.078;5.070;2024-02-28T11:39:02;22.43;;;14.23;;
77598;SDS011;66758;52.078;5.070;2024-02-28T11:41:28;24.80;;;13.70;;
77598;SDS011;66758;52.078;5.070;2024-02-28T11:43:53;23.57;;;14.53;;
77598;SDS011;66758;52.078;5.070;2024-02-28T11:46:19;23.17;;;13.33;;
77598;SDS011;66758;52.078;5.070;2024-02-28T11:48:44;25.53;;;14.00;;
77598;SDS011;66758;52.078;5.070;2024-02-28T11:51:10;22.30;;;13.77;;
77598;SDS011;66758;52.078;5.070;2024-02-28T11:53:35;22.73;;;13.17;;
77598;SDS011;66758;52.078;5.070;2024-02-28T11:56:01;21.40;;;13.07;;
77598;SDS011;66758;52.078;5.070;2024-02-28T11:58:26;19.90;;;13.67;;
77598;SDS011;66758;52.078;5.070;2024-02-28T12:00:51;21.23;;;13.63;;
77598;SDS011;66758;52.078;5.070;2024-02-28T12:03:21;24.67;;;14.27;;
77598;SDS011;66758;52.078;5.070;2024-02-28T12:05:46;23.10;;;13.65;;
77598;SDS011;66758;52.078;5.070;2024-02-28T12:08:12;20.87;;;13.97;;
77598;SDS011;66758;52.078;5.070;2024-02-28T12:10:37;21.52;;;13.23;;
77598;SDS011;66758;52.078;5.070;2024-02-28T12:13:03;19.37;;;12.50;;
77598;SDS011;66758;52.078;5.070;2024-02-28T12:15:31;21.13;;;13.07;;
77598;SDS011;66758;52.078;5.070;2024-02-28T12:17:57;20.00;;;12.27;;
77598;SDS011;66758;52.078;5.070;2024-02-28T12:20:25;18.70;;;12.93;;
77598;SDS011;66758;52.078;5.070;2024-02-28T12:22:50;23.40;;;12.90;;
77598;SDS011;66758;52.078;5.070;2024-02-28T12:25:16;21.40;;;12.03;;
77598;SDS011;66758;52.078;5.070;2024-02-28T12:27:41;22.97;;;13.20;;
77598;SDS011;66758;52.078;5.070;2024-02-28T12:30:07;20.83;;;12.90;;
77598;SDS011;66758;52.078;5.070;2024-02-28T12:32:32;21.30;;;12.82;;
77598;SDS011;66758;52.078;5.070;2024-02-28T12:34:57;18.10;;;12.07;;
77598;SDS011;66758;52.078;5.070;2024-02-28T12:37:23;22.83;;;13.07;;
77598;SDS011;66758;52.078;5.070;2024-02-28T12:39:48;20.77;;;13.40;;
77598;SDS011;66758;52.078;5.070;2024-02-28T12:42:14;23.03;;;13.43;;
77598;SDS011;66758;52.078;5.070;2024-02-28T12:44:39;23.00;;;14.50;;
77598;SDS011;66758;52.078;5.070;2024-02-28T12:47:05;20.13;;;13.65;;
77598;SDS011;66758;52.078;5.070;2024-02-28T12:49:31;22.00;;;13.18;;
77598;SDS011;66758;52.078;5.070;2024-02-28T12:51:56;20.07;;;13.20;;
77598;SDS011;66758;52.078;5.070;2024-02-28T12:54:22;20.07;;;12.63;;
77598;SDS011;66758;52.078;5.070;2024-02-28T12:56:47;19.37;;;12.77;;
77598;SDS011;66758;52.078;5.070;2024-02-28T12:59:13;20.90;;;13.45;;
77598;SDS011;66758;52.078;5.070;2024-02-28T13:01:38;22.70;;;13.57;;
77598;SDS011;66758;52.078;5.070;2024-02-28T13:04:03;21.07;;;12.63;;
77598;SDS011;66758;52.078;5.070;2024-02-28T13:06:29;24.40;;;13.50;;
77598;SDS011;66758;52.078;5.070;2024-02-28T13:08:55;22.65;;;13.50;;
77598;SDS011;66758;52.078;5.070;2024-02-28T13:11:21;21.43;;;12.97;;
77598;SDS011;66758;52.078;5.070;2024-02-28T13:13:46;21.00;;;12.13;;
77598;SDS011;66758;52.078;5.070;2024-02-28T13:16:14;22.10;;;13.32;;
77598;SDS011;66758;52.078;5.070;2024-02-28T13:18:39;22.20;;;13.83;;
77598;SDS011;66758;52.078;5.070;2024-02-28T13:21:05;22.03;;;13.37;;
77598;SDS011;66758;52.078;5.070;2024-02-28T13:23:30;22.08;;;13.32;;
77598;SDS011;66758;52.078;5.070;2024-02-28T13:25:59;24.87;;;13.20;;
77598;SDS011;66758;52.078;5.070;2024-02-28T13:28:25;26.75;;;16.00;;
77598;SDS011;66758;52.078;5.070;2024-02-28T13:31:03;30.92;;;18.02;;
77598;SDS011;66758;52.078;5.070;2024-02-28T13:33:31;30.95;;;18.83;;
77598;SDS011;66758;52.078;5.070;2024-02-28T13:35:57;37.67;;;20.13;;
77598;SDS011;66758;52.078;5.070;2024-02-28T13:38:22;32.10;;;19.17;;
77598;SDS011;66758;52.078;5.070;2024-02-28T13:40:48;27.53;;;16.90;;
77598;SDS011;66758;52.078;5.070;2024-02-28T13:43:13;32.10;;;18.00;;
77598;SDS011;66758;52.078;5.070;2024-02-28T13:45:39;30.93;;;17.97;;
77598;SDS011;66758;52.078;5.070;2024-02-28T13:48:14;28.27;;;18.42;;
77598;SDS011;66758;52.078;5.070;2024-02-28T13:50:40;32.45;;;19.10;;
77598;SDS011;66758;52.078;5.070;2024-02-28T13:53:06;32.55;;;19.13;;
77598;SDS011;66758;52.078;5.070;2024-02-28T13:55:31;32.47;;;18.70;;
77598;SDS011;66758;52.078;5.070;2024-02-28T13:57:57;36.83;;;20.83;;
77598;SDS011;66758;52.078;5.070;2024-02-28T14:00:22;32.97;;;18.23;;
77598;SDS011;66758;52.078;5.070;2024-02-28T14:02:48;30.63;;;17.65;;
77598;SDS011;66758;52.078;5.070;2024-02-28T14:05:14;24.27;;;15.77;;
77598;SDS011;66758;52.078;5.070;2024-02-28T14:07:39;26.50;;;16.43;;
77598;SDS011;66758;52.078;5.070;2024-02-28T14:10:05;24.77;;;15.18;;
77598;SDS011;66758;52.078;5.070;2024-02-28T14:12:38;29.97;;;17.43;;
77598;SDS011;66758;52.078;5.070;2024-02-28T14:15:06;26.98;;;15.95;;
77598;SDS011;66758;52.078;5.070;2024-02-28T14:17:39;28.67;;;17.52;;
77598;SDS011;66758;52.078;5.070;2024-02-28T14:20:07;28.40;;;16.03;;